Time;durP1;ratioP1;P1;durP2;ratioP2;P2;SDS_P1;SDS_P2;PMS_P1;PMS_P2;Temp;Humidity;BMP_temperature;BMP_pressure;BME280_temperature;BME280_humidity;BME280_pressure;Samples;Min_cycle;Max_cycle;Signal;HPM_P1;HPM_P2
2023/04/12 00:01:03;;;;;;;4.60;2.60;;;;;;;;;;5021419;28;20053;-73
2023/04/12 00:03:32;;;;;;;5.45;3.30;;;;;;;;;;5021708;28;20087;-72
2023/04/12 00:06:01;;;;;;;3.80;3.25;;;;;;;;;;5022069;28;20058;-73
2023/04/12 00:08:32;;;;;;;3.05;2.53;;;;;;;;;;5022281;28;20037;-72
2023/04/12 00:10:59;;;;;;;4.15;2.70;;;;;;;;;;5021430;28;20099;-72
2023/04/12 00:13:24;;;;;;;6.63;2.88;;;;;;;;;;5020115;28;20061;-72
2023/04/12 00:15:50;;;;;;;6.85;2.42;;;;;;;;;;5021971;28;20042;-73
2023/04/12 00:18:15;;;;;;;3.72;2.70;;;;;;;;;;5021870;28;20508;-74
2023/04/12 00:20:42;;;;;;;2.97;2.35;;;;;;;;;;5021998;28;20096;-73
2023/04/12 00:23:08;;;;;;;3.95;2.60;;;;;;;;;;5021010;28;20124;-73
2023/04/12 00:25:35;;;;;;;3.20;2.70;;;;;;;;;;5021212;28;20068;-73
2023/04/12 00:28:01;;;;;;;4.53;2.92;;;;;;;;;;5021813;28;20076;-73
2023/04/12 00:30:27;;;;;;;4.10;2.60;;;;;;;;;;5021522;28;20084;-73
2023/04/12 00:32:52;;;;;;;3.08;2.22;;;;;;;;;;5021584;28;20049;-72
2023/04/12 00:35:18;;;;;;;5.20;3.08;;;;;;;;;;5035221;28;20049;-72
2023/04/12 00:37:45;;;;;;;4.63;3.20;;;;;;;;;;5020317;28;20049;-73
2023/04/12 00:40:11;;;;;;;5.93;3.00;;;;;;;;;;5021480;28;20063;-72
2023/04/12 00:42:36;;;;;;;4.15;2.85;;;;;;;;;;5020076;28;20084;-73
2023/04/12 00:45:03;;;;;;;5.10;3.00;;;;;;;;;;5035913;28;20131;-73
2023/04/12 00:47:28;;;;;;;6.50;2.78;;;;;;;;;;5020414;28;20908;-72
2023/04/12 00:49:54;;;;;;;3.35;2.47;;;;;;;;;;5020187;28;20049;-73
2023/04/12 00:52:22;;;;;;;4.30;2.70;;;;;;;;;;5021098;28;20201;-73
2023/04/12 00:54:48;;;;;;;2.72;2.40;;;;;;;;;;5021157;28;20049;-73
2023/04/12 00:57:13;;;;;;;3.00;2.33;;;;;;;;;;5020016;28;20060;-73
2023/04/12 00:59:39;;;;;;;6.68;2.72;;;;;;;;;;5021118;28;20045;-73
2023/04/12 01:02:06;;;;;;;7.60;2.80;;;;;;;;;;5020943;28;20411;-72
2023/04/12 01:04:33;;;;;;;5.68;2.60;;;;;;;;;;5021119;28;20041;-73
2023/04/12 01:07:14;;;;;;;5.25;2.40;;;;;;;;;;5019046;28;20156;-73
2023/04/12 01:09:42;;;;;;;;;;;;;;;;;;5019940;28;20510;-73
2023/04/12 01:12:41;;;;;;;3.58;2.63;;;;;;;;;;5019692;28;19936;-73
2023/04/12 01:15:15;;;;;;;;;;;;;;;;;;4994741;28;20103;-74
2023/04/12 01:17:56;;;;;;;3.88;2.70;;;;;;;;;;5019326;28;19921;-73
2023/04/12 01:20:32;;;;;;;6.78;2.78;;;;;;;;;;5018017;28;20045;-73
2023/04/12 01:23:25;;;;;;;3.88;2.40;;;;;;;;;;5018154;28;20037;-72
2023/04/12 01:26:07;;;;;;;3.75;2.60;;;;;;;;;;5017658;28;20053;-73
2023/04/12 01:28:34;;;;;;;3.33;2.03;;;;;;;;;;5034969;28;20096;-73
2023/04/12 01:31:02;;;;;;;3.38;1.90;;;;;;;;;;5016883;28;20077;-73
2023/04/12 01:33:30;;;;;;;1.90;1.77;;;;;;;;;;5020006;28;20133;-73
2023/04/12 01:36:00;;;;;;;2.63;1.83;;;;;;;;;;5020200;28;20053;-73
2023/04/12 01:38:27;;;;;;;3.60;1.97;;;;;;;;;;5015988;28;20754;-73
2023/04/12 01:40:54;;;;;;;4.07;2.17;;;;;;;;;;5020067;28;20042;-73
2023/04/12 01:43:19;;;;;;;2.90;2.00;;;;;;;;;;5019205;28;21496;-73
2023/04/12 01:45:45;;;;;;;3.60;2.30;;;;;;;;;;5020334;28;20041;-73
2023/04/12 01:48:11;;;;;;;2.42;2.20;;;;;;;;;;5019297;28;20046;-73
2023/04/12 01:51:06;;;;;;;2.70;2.40;;;;;;;;;;5019136;28;20111;-73
2023/04/12 01:53:49;;;;;;;7.22;2.58;;;;;;;;;;5016797;28;20101;-73
2023/04/12 01:56:17;;;;;;;3.42;2.35;;;;;;;;;;5020480;28;20049;-73
2023/04/12 01:58:46;;;;;;;6.18;2.38;;;;;;;;;;5035600;28;20053;-73
2023/04/12 02:01:14;;;;;;;4.22;2.25;;;;;;;;;;5018590;28;20521;-73
2023/04/12 02:03:44;;;;;;;5.28;2.45;;;;;;;;;;5019581;28;20974;-73
2023/04/12 02:06:10;;;;;;;4.47;2.28;;;;;;;;;;5019126;28;20070;-73
2023/04/12 02:08:36;;;;;;;6.80;2.50;;;;;;;;;;5018825;28;20050;-73
2023/04/12 02:11:09;;;;;;;3.53;2.30;;;;;;;;;;5018460;28;20064;-73
2023/04/12 02:13:34;;;;;;;6.07;2.40;;;;;;;;;;5034803;28;20068;-73
2023/04/12 02:16:01;;;;;;;5.82;2.67;;;;;;;;;;5017850;28;20041;-73
2023/04/12 02:18:27;;;;;;;3.97;2.50;;;;;;;;;;5020441;28;20071;-73
2023/04/12 02:20:54;;;;;;;3.83;2.63;;;;;;;;;;5018215;28;20433;-73
2023/04/12 02:23:20;;;;;;;7.07;2.42;;;;;;;;;;5019658;28;20107;-73
2023/04/12 02:25:46;;;;;;;2.92;2.40;;;;;;;;;;5018940;28;20463;-73
2023/04/12 02:28:13;;;;;;;3.75;2.42;;;;;;;;;;5035503;28;20107;-73
2023/04/12 02:30:42;;;;;;;3.10;2.20;;;;;;;;;;5019941;28;20042;-73
2023/04/12 02:33:10;;;;;;;3.30;2.35;;;;;;;;;;5018027;28;20068;-73
2023/04/12 02:35:36;;;;;;;4.82;2.40;;;;;;;;;;5019837;28;20057;-73
2023/04/12 02:38:08;;;;;;;3.83;2.00;;;;;;;;;;5021957;28;20053;-73
2023/04/12 02:40:42;;;;;;;2.25;2.03;;;;;;;;;;5022401;28;20042;-73
2023/04/12 02:43:12;;;;;;;4.15;2.38;;;;;;;;;;5021824;28;20052;-73
2023/04/12 02:45:41;;;;;;;5.05;1.83;;;;;;;;;;5022194;28;20099;-73
2023/04/12 02:48:08;;;;;;;2.67;2.20;;;;;;;;;;5021110;28;20049;-73
2023/04/12 02:50:36;;;;;;;3.78;2.60;;;;;;;;;;5022240;28;20041;-73
2023/04/12 02:53:10;;;;;;;2.10;1.90;;;;;;;;;;5037673;28;20123;-73
2023/04/12 02:55:56;;;;;;;2.28;2.05;;;;;;;;;;5023137;28;20045;-73
2023/04/12 02:58:23;;;;;;;4.88;2.17;;;;;;;;;;5021572;28;20041;-73
2023/04/12 03:00:50;;;;;;;2.45;2.17;;;;;;;;;;5023501;28;20443;-73
2023/04/12 03:03:23;;;;;;;5.28;2.25;;;;;;;;;;5021520;28;20190;-73
2023/04/12 03:05:52;;;;;;;2.30;1.90;;;;;;;;;;5022107;28;20106;-72
2023/04/12 03:08:18;;;;;;;3.00;2.47;;;;;;;;;;5021819;28;20041;-73
2023/04/12 03:10:51;;;;;;;9.07;2.30;;;;;;;;;;5021104;28;20045;-72
2023/04/12 03:13:16;;;;;;;3.10;2.60;;;;;;;;;;5020460;28;20045;-72
2023/04/12 03:15:46;;;;;;;5.32;2.28;;;;;;;;;;5021487;28;20041;-72
2023/04/12 03:18:12;;;;;;;7.90;2.13;;;;;;;;;;5021638;28;20077;-72
2023/04/12 03:20:47;;;;;;;2.00;1.80;;;;;;;;;;5018495;28;20068;-73
2023/04/12 03:23:12;;;;;;;3.22;1.85;;;;;;;;;;5036551;28;20042;-72
2023/04/12 03:25:43;;;;;;;2.25;1.65;;;;;;;;;;5021506;28;20056;-72
2023/04/12 03:28:28;;;;;;;4.30;2.20;;;;;;;;;;5021606;28;20509;-72
2023/04/12 03:30:55;;;;;;;6.97;1.90;;;;;;;;;;5020620;28;21168;-73
2023/04/12 03:33:23;;;;;;;2.58;1.25;;;;;;;;;;5020629;28;20285;-73
2023/04/12 03:35:54;;;;;;;4.25;1.67;;;;;;;;;;5021176;28;20698;-73
2023/04/12 03:38:19;;;;;;;3.85;1.40;;;;;;;;;;5022001;28;20710;-73
2023/04/12 03:40:45;;;;;;;2.95;1.50;;;;;;;;;;5023205;28;20076;-73
2023/04/12 03:43:11;;;;;;;7.18;1.65;;;;;;;;;;5021094;28;20410;-72
2023/04/12 03:45:36;;;;;;;12.00;1.45;;;;;;;;;;5020645;28;20060;-72
2023/04/12 03:48:03;;;;;;;4.13;1.27;;;;;;;;;;5018486;28;20126;-72
2023/04/12 03:50:42;;;;;;;1.75;1.00;;;;;;;;;;5021297;28;20049;-72
2023/04/12 03:53:09;;;;;;;1.08;0.98;;;;;;;;;;5018938;28;20050;-72
2023/04/12 03:55:36;;;;;;;4.35;1.60;;;;;;;;;;5037517;28;20095;-72
2023/04/12 03:58:03;;;;;;;1.58;1.30;;;;;;;;;;5037587;28;20136;-73
2023/04/12 04:00:33;;;;;;;3.08;2.20;;;;;;;;;;5037202;28;20037;-72
2023/04/12 04:03:05;;;;;;;4.78;1.95;;;;;;;;;;5019810;28;20601;-72
2023/04/12 04:05:37;;;;;;;4.60;1.85;;;;;;;;;;5019254;28;20049;-73
2023/04/12 04:08:05;;;;;;;6.00;2.35;;;;;;;;;;5020230;28;20693;-72
2023/04/12 04:10:38;;;;;;;4.45;1.95;;;;;;;;;;5020427;28;20052;-72
2023/04/12 04:13:03;;;;;;;3.25;2.35;;;;;;;;;;5016618;28;20041;-73
2023/04/12 04:15:29;;;;;;;2.53;2.00;;;;;;;;;;5019190;28;20165;-73
2023/04/12 04:17:55;;;;;;;4.78;2.30;;;;;;;;;;5021018;28;20506;-72
2023/04/12 04:20:21;;;;;;;3.58;2.40;;;;;;;;;;5019900;28;20520;-73
2023/04/12 04:22:52;;;;;;;3.15;2.28;;;;;;;;;;5019852;28;20684;-72
2023/04/12 04:25:18;;;;;;;5.15;1.90;;;;;;;;;;5036412;28;20135;-72
2023/04/12 04:27:49;;;;;;;4.75;2.33;;;;;;;;;;5036791;28;20163;-72
2023/04/12 04:30:15;;;;;;;2.47;1.77;;;;;;;;;;5037202;28;20037;-72
2023/04/12 04:32:44;;;;;;;4.72;1.65;;;;;;;;;;5020088;28;20033;-73
2023/04/12 04:35:11;;;;;;;4.75;2.13;;;;;;;;;;5036519;28;20042;-72
2023/04/12 04:37:51;;;;;;;7.78;1.85;;;;;;;;;;5036907;28;20042;-72
2023/04/12 04:40:20;;;;;;;2.60;1.85;;;;;;;;;;5019560;28;20096;-73
2023/04/12 04:42:53;;;;;;;4.35;1.77;;;;;;;;;;5037048;28;20045;-72
2023/04/12 04:45:26;;;;;;;3.03;2.13;;;;;;;;;;5036140;28;20198;-72
2023/04/12 04:47:53;;;;;;;5.10;2.20;;;;;;;;;;5021276;28;20060;-72
2023/04/12 04:50:23;;;;;;;2.45;2.25;;;;;;;;;;5035807;28;20049;-72
2023/04/12 04:52:51;;;;;;;3.10;2.20;;;;;;;;;;5019114;28;20104;-73
2023/04/12 04:55:17;;;;;;;2.85;1.95;;;;;;;;;;5018642;28;20499;-73
2023/04/12 04:57:44;;;;;;;4.00;1.90;;;;;;;;;;5018976;28;20128;-72
2023/04/12 05:00:15;;;;;;;4.32;2.40;;;;;;;;;;5018639;28;20136;-72
2023/04/12 05:02:44;;;;;;;5.43;2.05;;;;;;;;;;5019785;28;20052;-72
2023/04/12 05:05:14;;;;;;;3.72;1.52;;;;;;;;;;5018447;28;20049;-72
2023/04/12 05:07:42;;;;;;;7.60;2.60;;;;;;;;;;5017686;28;20045;-72
2023/04/12 05:10:09;;;;;;;5.93;2.40;;;;;;;;;;5008133;28;20052;-72
2023/04/12 05:12:38;;;;;;;4.00;2.58;;;;;;;;;;5017063;28;20045;-73
2023/04/12 05:15:04;;;;;;;5.07;2.10;;;;;;;;;;5017028;28;20053;-73
2023/04/12 05:17:29;;;;;;;6.07;2.55;;;;;;;;;;5017264;28;20057;-73
2023/04/12 05:19:55;;;;;;;3.47;2.00;;;;;;;;;;5019151;28;20143;-73
2023/04/12 05:22:20;;;;;;;3.75;2.20;;;;;;;;;;5018356;28;20044;-73
2023/04/12 05:24:49;;;;;;;4.57;2.35;;;;;;;;;;5034974;28;20045;-74
2023/04/12 05:27:17;;;;;;;5.00;2.30;;;;;;;;;;5020220;28;20048;-73
2023/04/12 05:29:46;;;;;;;6.40;2.40;;;;;;;;;;5020694;28;20116;-74
2023/04/12 05:32:12;;;;;;;5.55;2.10;;;;;;;;;;5011277;28;20050;-74
2023/04/12 05:34:37;;;;;;;5.18;2.50;;;;;;;;;;5019626;28;20057;-74
2023/04/12 05:37:03;;;;;;;8.07;2.95;;;;;;;;;;5018946;28;20042;-75
2023/04/12 05:39:34;;;;;;;3.63;2.42;;;;;;;;;;5019809;28;20490;-74
2023/04/12 05:42:00;;;;;;;6.57;2.90;;;;;;;;;;5019299;28;20056;-76
2023/04/12 05:44:26;;;;;;;4.47;2.42;;;;;;;;;;5002904;28;20090;-72
2023/04/12 05:46:51;;;;;;;5.88;2.38;;;;;;;;;;5036264;28;20041;-76
2023/04/12 05:49:17;;;;;;;6.20;2.30;;;;;;;;;;5016994;28;20053;-74
2023/04/12 05:51:43;;;;;;;2.75;2.15;;;;;;;;;;5018282;28;20049;-74
2023/04/12 05:54:19;;;;;;;5.82;2.17;;;;;;;;;;5017561;28;20406;-74
2023/04/12 05:56:46;;;;;;;5.90;2.08;;;;;;;;;;5034249;28;20037;-73
2023/04/12 05:59:11;;;;;;;6.00;2.22;;;;;;;;;;5019755;28;20046;-73
2023/04/12 06:01:41;;;;;;;3.20;1.85;;;;;;;;;;5018718;28;20042;-73
2023/04/12 06:04:07;;;;;;;5.10;2.17;;;;;;;;;;5034969;28;20045;-74
2023/04/12 06:06:32;;;;;;;4.40;1.98;;;;;;;;;;5019041;28;20051;-72
2023/04/12 06:09:01;;;;;;;6.65;1.88;;;;;;;;;;5017865;28;20883;-73
2023/04/12 06:11:27;;;;;;;4.07;1.88;;;;;;;;;;5020932;28;20050;-75
2023/04/12 06:13:54;;;;;;;2.47;1.40;;;;;;;;;;5038038;28;20844;-74
2023/04/12 06:16:20;;;;;;;2.45;1.63;;;;;;;;;;5036724;28;20077;-73
2023/04/12 06:18:45;;;;;;;2.22;1.50;;;;;;;;;;5021171;28;20128;-72
2023/04/12 06:21:11;;;;;;;4.65;1.60;;;;;;;;;;5020653;28;20041;-72
2023/04/12 06:23:39;;;;;;;3.22;1.70;;;;;;;;;;5037917;28;20056;-73
2023/04/12 06:26:05;;;;;;;3.83;1.90;;;;;;;;;;5022577;28;20037;-73
2023/04/12 06:28:30;;;;;;;4.72;1.67;;;;;;;;;;5021519;28;20057;-73
2023/04/12 06:30:55;;;;;;;1.88;1.60;;;;;;;;;;5020294;28;20057;-75
2023/04/12 06:33:22;;;;;;;2.72;1.52;;;;;;;;;;5020791;28;20049;-74
2023/04/12 06:35:49;;;;;;;4.25;1.98;;;;;;;;;;5021300;28;20053;-72
2023/04/12 06:38:14;;;;;;;3.55;2.15;;;;;;;;;;5036663;28;20049;-72
2023/04/12 06:40:40;;;;;;;5.88;2.20;;;;;;;;;;5021650;28;20045;-75
2023/04/12 06:43:05;;;;;;;5.40;1.90;;;;;;;;;;5021588;28;20172;-74
2023/04/12 06:45:31;;;;;;;3.88;2.13;;;;;;;;;;5020943;28;20084;-73
2023/04/12 06:47:57;;;;;;;4.18;1.90;;;;;;;;;;5022110;28;20076;-73
2023/04/12 06:50:24;;;;;;;2.47;2.03;;;;;;;;;;5021915;28;20103;-73
2023/04/12 06:52:50;;;;;;;3.03;2.10;;;;;;;;;;5021620;28;20080;-74
2023/04/12 06:55:15;;;;;;;3.88;2.30;;;;;;;;;;5021628;28;21122;-73
2023/04/12 06:57:43;;;;;;;3.03;2.13;;;;;;;;;;5022205;28;20057;-73
2023/04/12 07:00:09;;;;;;;4.05;2.30;;;;;;;;;;5021550;28;20072;-74
2023/04/12 07:02:35;;;;;;;4.50;2.40;;;;;;;;;;5021473;28;20051;-73
2023/04/12 07:05:00;;;;;;;4.85;2.38;;;;;;;;;;5021060;28;20065;-74
2023/04/12 07:07:26;;;;;;;5.25;2.60;;;;;;;;;;5022202;28;20509;-73
2023/04/12 07:09:51;;;;;;;6.28;2.15;;;;;;;;;;5022378;28;20072;-72
2023/04/12 07:12:17;;;;;;;4.63;1.80;;;;;;;;;;5021190;28;20351;-72
2023/04/12 07:14:42;;;;;;;2.40;1.93;;;;;;;;;;4986030;28;1048311;-75
2023/04/12 07:17:08;;;;;;;7.80;3.65;;;;;;;;;;5022586;28;20350;-74
2023/04/12 07:19:35;;;;;;;2.25;2.05;;;;;;;;;;5022867;28;20046;-73
2023/04/12 07:22:01;;;;;;;3.42;2.38;;;;;;;;;;5022157;28;20057;-73
2023/04/12 07:24:26;;;;;;;5.15;2.85;;;;;;;;;;5020498;28;20049;-73
2023/04/12 07:26:56;;;;;;;3.22;2.00;;;;;;;;;;5022540;28;20038;-75
2023/04/12 07:29:21;;;;;;;4.72;1.80;;;;;;;;;;5022313;28;20051;-73
2023/04/12 07:31:47;;;;;;;3.00;2.25;;;;;;;;;;5022190;28;20045;-71
2023/04/12 07:34:12;;;;;;;3.65;2.63;;;;;;;;;;5021250;28;20068;-71
2023/04/12 07:36:38;;;;;;;4.30;2.20;;;;;;;;;;5022923;28;20042;-71
2023/04/12 07:39:04;;;;;;;5.82;2.78;;;;;;;;;;5021873;28;20077;-72
2023/04/12 07:41:29;;;;;;;2.40;2.13;;;;;;;;;;5022092;28;20049;-72
2023/04/12 07:43:55;;;;;;;1.77;1.52;;;;;;;;;;5021911;28;20037;-74
2023/04/12 07:46:20;;;;;;;4.57;2.53;;;;;;;;;;5021563;28;20541;-73
2023/04/12 07:48:46;;;;;;;4.68;2.05;;;;;;;;;;5022442;28;20548;-72
2023/04/12 07:51:11;;;;;;;4.32;2.40;;;;;;;;;;5021612;28;20057;-74
2023/04/12 07:53:37;;;;;;;2.53;2.10;;;;;;;;;;5021641;28;20125;-73
2023/04/12 07:56:05;;;;;;;5.13;2.22;;;;;;;;;;5021439;28;20245;-74
2023/04/12 07:58:32;;;;;;;6.63;2.65;;;;;;;;;;5021813;28;20057;-74
2023/04/12 08:00:57;;;;;;;4.72;2.70;;;;;;;;;;5021317;28;20067;-74
2023/04/12 08:03:23;;;;;;;3.80;2.40;;;;;;;;;;5022124;28;20049;-73
2023/04/12 08:05:52;;;;;;;3.80;2.28;;;;;;;;;;5022098;28;20056;-73
2023/04/12 08:08:18;;;;;;;3.15;2.35;;;;;;;;;;5021121;28;20044;-73
2023/04/12 08:10:44;;;;;;;5.88;2.35;;;;;;;;;;5022189;28;20406;-73
2023/04/12 08:13:09;;;;;;;3.65;2.25;;;;;;;;;;5020750;28;20498;-73
2023/04/12 08:15:35;;;;;;;6.70;2.42;;;;;;;;;;5022792;28;20445;-73
2023/04/12 08:18:01;;;;;;;3.60;2.38;;;;;;;;;;5021024;28;20060;-75
2023/04/12 08:20:26;;;;;;;4.00;2.72;;;;;;;;;;5022593;28;20099;-75
2023/04/12 08:22:53;;;;;;;4.43;2.50;;;;;;;;;;5021826;28;20436;-73
2023/04/12 08:25:19;;;;;;;5.25;2.70;;;;;;;;;;5020469;28;20042;-73
2023/04/12 08:27:45;;;;;;;2.53;2.22;;;;;;;;;;5021930;28;20117;-73
2023/04/12 08:30:12;;;;;;;6.10;2.15;;;;;;;;;;5020508;28;20063;-70
2023/04/12 08:32:37;;;;;;;5.35;2.58;;;;;;;;;;5021014;28;20033;-73
2023/04/12 08:35:04;;;;;;;2.40;2.10;;;;;;;;;;5020254;28;20502;-73
2023/04/12 08:37:30;;;;;;;2.58;2.38;;;;;;;;;;5021948;28;20958;-72
2023/04/12 08:39:59;;;;;;;2.67;1.77;;;;;;;;;;5020652;28;20069;-73
2023/04/12 08:42:30;;;;;;;4.63;1.95;;;;;;;;;;5021522;28;20049;-73
2023/04/12 08:44:55;;;;;;;2.65;1.80;;;;;;;;;;5021227;28;20647;-74
2023/04/12 08:47:21;;;;;;;4.53;2.08;;;;;;;;;;5020678;28;20069;-73
2023/04/12 08:49:46;;;;;;;3.22;2.10;;;;;;;;;;5021279;28;20132;-73
2023/04/12 08:52:12;;;;;;;2.40;2.10;;;;;;;;;;5019865;28;20046;-74
2023/04/12 08:54:37;;;;;;;3.83;1.83;;;;;;;;;;5021121;28;20067;-73
2023/04/12 08:57:05;;;;;;;5.18;2.30;;;;;;;;;;5020219;28;20041;-73
2023/04/12 08:59:34;;;;;;;3.78;2.25;;;;;;;;;;5020503;28;20131;-75
2023/04/12 09:01:59;;;;;;;6.28;2.50;;;;;;;;;;5019866;28;20060;-70
2023/04/12 09:04:25;;;;;;;4.57;2.40;;;;;;;;;;5020289;28;20418;-72
2023/04/12 09:06:51;;;;;;;4.53;2.30;;;;;;;;;;5020704;28;20042;-71
2023/04/12 09:09:17;;;;;;;4.00;2.40;;;;;;;;;;5020336;28;20061;-70
2023/04/12 09:11:42;;;;;;;3.15;2.15;;;;;;;;;;5020778;28;20056;-71
2023/04/12 09:14:22;;;;;;;6.75;2.72;;;;;;;;;;5019714;28;20056;-70
2023/04/12 09:16:48;;;;;;;4.75;2.65;;;;;;;;;;5019895;28;20041;-72
2023/04/12 09:19:14;;;;;;;3.33;2.60;;;;;;;;;;5019753;28;20413;-72
2023/04/12 09:21:54;;;;;;;5.07;2.60;;;;;;;;;;5019908;28;20115;-70
2023/04/12 09:24:22;;;;;;;3.15;2.38;;;;;;;;;;5019461;28;20120;-72
2023/04/12 09:27:00;;;;;;;7.75;2.92;;;;;;;;;;5020533;28;20752;-71
2023/04/12 09:29:25;;;;;;;5.82;2.08;;;;;;;;;;5019495;28;20144;-70
2023/04/12 09:31:55;;;;;;;3.42;2.20;;;;;;;;;;5019939;28;20144;-72
2023/04/12 09:34:21;;;;;;;3.20;2.50;;;;;;;;;;5019338;28;20085;-71
2023/04/12 09:36:46;;;;;;;3.53;2.20;;;;;;;;;;5019696;28;20136;-73
2023/04/12 09:39:12;;;;;;;3.95;2.15;;;;;;;;;;5019439;28;20053;-73
2023/04/12 09:41:37;;;;;;;2.15;2.00;;;;;;;;;;5020264;28;20076;-71
2023/04/12 09:44:03;;;;;;;3.03;2.10;;;;;;;;;;5019675;28;20188;-73
2023/04/12 09:46:28;;;;;;;5.35;2.00;;;;;;;;;;5035080;28;20053;-72
2023/04/12 09:48:57;;;;;;;2.55;2.30;;;;;;;;;;5019616;28;20045;-71
2023/04/12 09:51:35;;;;;;;4.82;2.08;;;;;;;;;;5019534;28;20056;-72
2023/04/12 09:54:02;;;;;;;3.58;1.90;;;;;;;;;;5018752;28;20069;-72
2023/04/12 09:56:30;;;;;;;1.50;1.40;;;;;;;;;;5019614;28;21217;-72
2023/04/12 09:59:01;;;;;;;4.45;1.65;;;;;;;;;;5019841;28;20037;-71
2023/04/12 10:01:32;;;;;;;1.75;1.65;;;;;;;;;;5020025;28;20522;-71
2023/04/12 10:03:58;;;;;;;10.02;1.63;;;;;;;;;;5019748;28;20084;-72
2023/04/12 10:06:25;;;;;;;2.85;1.30;;;;;;;;;;5019566;28;20379;-72
2023/04/12 10:08:51;;;;;;;1.85;1.42;;;;;;;;;;5019144;28;20045;-73
2023/04/12 10:11:16;;;;;;;1.30;1.20;;;;;;;;;;5018715;28;20383;-71
2023/04/12 10:13:43;;;;;;;2.58;1.50;;;;;;;;;;5019842;28;20057;-72
2023/04/12 10:16:09;;;;;;;1.58;1.45;;;;;;;;;;5019807;28;20525;-71
2023/04/12 10:18:38;;;;;;;2.80;1.17;;;;;;;;;;5019666;28;20469;-73
2023/04/12 10:21:04;;;;;;;1.38;1.10;;;;;;;;;;5019133;28;20045;-73
2023/04/12 10:23:32;;;;;;;2.20;1.15;;;;;;;;;;5019615;28;20616;-73
2023/04/12 10:25:59;;;;;;;1.65;1.13;;;;;;;;;;5019698;28;20060;-74
2023/04/12 10:28:25;;;;;;;2.20;1.35;;;;;;;;;;5035292;28;20055;-73
2023/04/12 10:30:55;;;;;;;1.60;1.50;;;;;;;;;;5018680;28;20049;-73
2023/04/12 10:33:25;;;;;;;1.63;1.40;;;;;;;;;;5019078;28;20050;-75
2023/04/12 10:35:58;;;;;;;1.30;1.20;;;;;;;;;;5019914;28;20053;-73
2023/04/12 10:38:26;;;;;;;1.60;1.50;;;;;;;;;;5019806;28;20490;-74
2023/04/12 10:41:14;;;;;;;1.67;1.58;;;;;;;;;;5018652;28;20053;-74
2023/04/12 10:43:43;;;;;;;2.78;1.27;;;;;;;;;;5016758;28;20132;-72
2023/04/12 10:46:36;;;;;;;3.15;1.52;;;;;;;;;;5019412;28;20057;-73
2023/04/12 10:49:09;;;;;;;1.50;1.40;;;;;;;;;;5019035;28;20104;-71
2023/04/12 10:51:34;;;;;;;2.08;1.60;;;;;;;;;;5018426;28;20172;-73
2023/04/12 10:54:17;;;;;;;1.55;1.30;;;;;;;;;;5018998;28;20049;-73
2023/04/12 10:56:45;;;;;;;1.45;1.15;;;;;;;;;;5021091;28;20087;-73
2023/04/12 10:59:49;;;;;;;1.30;1.20;;;;;;;;;;5037682;28;20049;-74
2023/04/12 11:02:15;;;;;;;1.50;1.40;;;;;;;;;;5021842;28;20049;-73
2023/04/12 11:05:17;;;;;;;1.27;1.10;;;;;;;;;;5021171;28;20041;-74
2023/04/12 11:07:53;;;;;;;2.55;1.55;;;;;;;;;;4997342;28;20045;-75
2023/04/12 11:10:37;;;;;;;1.73;1.23;;;;;;;;;;5022783;28;20057;-71
2023/04/12 11:13:06;;;;;;;2.28;1.10;;;;;;;;;;5024143;28;20061;-74
2023/04/12 11:15:33;;;;;;;1.73;0.90;;;;;;;;;;5022127;28;20514;-72
2023/04/12 11:17:59;;;;;;;0.82;0.82;;;;;;;;;;5022880;28;20045;-72
2023/04/12 11:20:26;;;;;;;1.08;0.80;;;;;;;;;;5023061;28;20514;-72
2023/04/12 11:22:52;;;;;;;1.15;1.00;;;;;;;;;;5022366;28;20398;-73
2023/04/12 11:25:19;;;;;;;1.00;0.90;;;;;;;;;;5036550;28;20045;-74
2023/04/12 11:27:50;;;;;;;0.82;0.82;;;;;;;;;;5022607;28;20052;-72
2023/04/12 11:30:16;;;;;;;2.97;0.98;;;;;;;;;;5020826;28;20513;-72
2023/04/12 11:32:43;;;;;;;0.95;0.82;;;;;;;;;;5022538;28;20041;-72
2023/04/12 11:35:09;;;;;;;0.75;0.70;;;;;;;;;;5020738;28;20052;-74
2023/04/12 11:37:36;;;;;;;2.05;1.00;;;;;;;;;;5021606;28;20094;-72
2023/04/12 11:40:04;;;;;;;1.08;0.82;;;;;;;;;;5022552;28;20099;-73
2023/04/12 11:42:31;;;;;;;1.20;1.10;;;;;;;;;;5022508;28;20132;-72
2023/04/12 11:44:57;;;;;;;1.08;0.98;;;;;;;;;;5022469;28;20045;-73
2023/04/12 11:47:23;;;;;;;0.82;0.80;;;;;;;;;;5020707;28;20049;-73
2023/04/12 11:49:55;;;;;;;0.95;0.95;;;;;;;;;;5022327;28;20049;-73
2023/04/12 11:52:26;;;;;;;;;;;;;;;;;;5022549;28;20056;-70
2023/04/12 11:54:55;;;;;;;1.15;1.02;;;;;;;;;;5021790;28;19931;-72
2023/04/12 11:57:20;;;;;;;2.65;1.15;;;;;;;;;;5020319;28;20059;-73
2023/04/12 11:59:47;;;;;;;1.63;1.00;;;;;;;;;;5022388;28;20045;-73
2023/04/12 12:02:15;;;;;;;2.42;1.23;;;;;;;;;;5021645;28;20087;-73
2023/04/12 12:04:46;;;;;;;0.93;0.90;;;;;;;;;;5022034;28;20550;-73
2023/04/12 12:07:12;;;;;;;1.95;1.10;;;;;;;;;;5020557;28;20049;-73
2023/04/12 12:09:39;;;;;;;0.93;0.85;;;;;;;;;;5020654;28;20053;-73
2023/04/12 12:12:05;;;;;;;1.73;0.98;;;;;;;;;;5021638;28;20061;-75
2023/04/12 12:14:33;;;;;;;3.53;0.90;;;;;;;;;;5021505;28;20143;-75
2023/04/12 12:16:58;;;;;;;0.82;0.82;;;;;;;;;;5021399;28;20041;-72
2023/04/12 12:19:28;;;;;;;0.70;0.70;;;;;;;;;;5020596;28;20068;-72
2023/04/12 12:21:53;;;;;;;1.98;0.80;;;;;;;;;;5020915;28;20070;-71
2023/04/12 12:24:21;;;;;;;1.67;0.90;;;;;;;;;;5021841;28;20176;-73
2023/04/12 12:26:48;;;;;;;1.00;0.70;;;;;;;;;;5021907;28;20049;-72
2023/04/12 12:29:18;;;;;;;1.05;0.90;;;;;;;;;;5020773;28;20041;-73
2023/04/12 12:31:47;;;;;;;1.02;0.93;;;;;;;;;;5020338;28;20060;-73
2023/04/12 12:34:13;;;;;;;1.00;0.90;;;;;;;;;;5021143;28;20103;-71
2023/04/12 12:36:38;;;;;;;1.50;0.70;;;;;;;;;;5021905;28;20045;-73
2023/04/12 12:39:10;;;;;;;1.27;0.70;;;;;;;;;;5020702;28;20052;-73
2023/04/12 12:41:36;;;;;;;;;;;;;;;;;;5020985;28;20534;-73
2023/04/12 12:44:02;;;;;;;0.65;0.57;;;;;;;;;;5021115;28;19927;-73
2023/04/12 12:46:28;;;;;;;0.77;0.77;;;;;;;;;;5021502;28;20091;-72
2023/04/12 12:48:53;;;;;;;0.70;0.70;;;;;;;;;;5021421;28;20045;-74
2023/04/12 12:51:19;;;;;;;4.38;0.80;;;;;;;;;;5035329;28;20055;-74
2023/04/12 12:53:45;;;;;;;0.70;0.70;;;;;;;;;;5020418;28;20053;-74
2023/04/12 12:56:12;;;;;;;0.77;0.77;;;;;;;;;;5021343;28;20616;-74
2023/04/12 12:58:39;;;;;;;1.73;0.90;;;;;;;;;;5021118;28;20041;-75
2023/04/12 13:01:05;;;;;;;0.77;0.77;;;;;;;;;;5019919;28;20059;-74
2023/04/12 13:03:30;;;;;;;1.17;0.80;;;;;;;;;;5019754;28;20457;-73
2023/04/12 13:05:56;;;;;;;0.80;0.80;;;;;;;;;;5020675;28;20479;-75
2023/04/12 13:08:22;;;;;;;0.70;0.70;;;;;;;;;;5021071;28;20048;-71
2023/04/12 13:10:48;;;;;;;1.25;0.80;;;;;;;;;;5020484;28;20402;-72
2023/04/12 13:13:14;;;;;;;1.15;0.80;;;;;;;;;;5020173;28;20037;-74
2023/04/12 13:15:39;;;;;;;0.90;0.90;;;;;;;;;;5019803;28;20179;-74
2023/04/12 13:18:06;;;;;;;1.33;1.00;;;;;;;;;;5020981;28;20046;-71
2023/04/12 13:20:32;;;;;;;1.00;0.75;;;;;;;;;;5020576;28;20049;-72
2023/04/12 13:22:57;;;;;;;0.90;0.80;;;;;;;;;;5020498;28;20048;-72
2023/04/12 13:25:23;;;;;;;0.90;0.70;;;;;;;;;;5017782;28;20049;-73
2023/04/12 13:27:49;;;;;;;1.48;1.05;;;;;;;;;;5020402;28;20045;-75
2023/04/12 13:30:16;;;;;;;0.80;0.80;;;;;;;;;;5021189;28;20060;-75
2023/04/12 13:32:43;;;;;;;2.42;0.80;;;;;;;;;;5020067;28;20183;-75
2023/04/12 13:35:09;;;;;;;1.00;0.90;;;;;;;;;;5019797;28;20140;-75
2023/04/12 13:37:34;;;;;;;1.10;0.95;;;;;;;;;;5019793;28;20094;-74
2023/04/12 13:39:59;;;;;;;1.05;0.65;;;;;;;;;;5020224;28;20041;-73
2023/04/12 13:42:25;;;;;;;0.70;0.60;;;;;;;;;;5020403;28;20063;-73
2023/04/12 13:44:50;;;;;;;0.82;0.80;;;;;;;;;;5020411;28;20057;-75
2023/04/12 13:47:19;;;;;;;0.98;0.80;;;;;;;;;;5019235;28;20080;-74
2023/04/12 13:49:45;;;;;;;1.77;0.90;;;;;;;;;;5020066;28;20058;-74
2023/04/12 13:52:10;;;;;;;0.82;0.80;;;;;;;;;;5020220;28;20060;-74
2023/04/12 13:54:36;;;;;;;1.48;0.90;;;;;;;;;;5019791;28;20037;-73
2023/04/12 13:57:02;;;;;;;2.17;1.00;;;;;;;;;;5019664;28;20058;-74
2023/04/12 13:59:28;;;;;;;0.77;0.77;;;;;;;;;;5019977;28;20073;-74
2023/04/12 14:01:53;;;;;;;3.70;0.90;;;;;;;;;;5020139;28;20091;-71
2023/04/12 14:04:19;;;;;;;2.60;1.10;;;;;;;;;;5020147;28;20068;-75
2023/04/12 14:06:44;;;;;;;1.20;0.90;;;;;;;;;;5020356;28;20921;-74
2023/04/12 14:09:24;;;;;;;1.42;1.00;;;;;;;;;;5018754;28;20052;-74
2023/04/12 14:11:50;;;;;;;0.80;0.80;;;;;;;;;;5020239;28;20064;-75
2023/04/12 14:14:16;;;;;;;1.33;1.00;;;;;;;;;;5019097;28;20952;-74
2023/04/12 14:16:41;;;;;;;1.25;1.10;;;;;;;;;;5018167;28;20477;-74
2023/04/12 14:19:07;;;;;;;1.40;1.00;;;;;;;;;;5019010;28;20077;-75
2023/04/12 14:21:32;;;;;;;0.88;0.77;;;;;;;;;;5017790;28;20098;-75
2023/04/12 14:23:57;;;;;;;1.45;1.00;;;;;;;;;;5019112;28;20648;-73
2023/04/12 14:26:24;;;;;;;1.38;1.00;;;;;;;;;;5019655;28;20037;-75
2023/04/12 14:28:50;;;;;;;1.05;0.93;;;;;;;;;;5020221;28;20041;-75
2023/04/12 14:31:16;;;;;;;1.40;0.82;;;;;;;;;;5019714;28;20047;-75
2023/04/12 14:33:41;;;;;;;1.42;0.90;;;;;;;;;;5023836;28;20080;-73
2023/04/12 14:36:07;;;;;;;2.15;1.13;;;;;;;;;;5023418;28;20048;-75
2023/04/12 14:38:33;;;;;;;1.13;1.02;;;;;;;;;;5024409;28;20045;-74
2023/04/12 14:40:59;;;;;;;0.85;0.82;;;;;;;;;;5023435;28;20049;-74
2023/04/12 14:43:25;;;;;;;3.50;0.98;;;;;;;;;;5022151;28;20401;-74
2023/04/12 14:45:50;;;;;;;1.05;1.00;;;;;;;;;;5023412;28;20045;-75
2023/04/12 14:48:15;;;;;;;3.17;1.20;;;;;;;;;;5023881;28;20053;-74